Latest Weather Observations for Centre Island

IDD60801

Issued at 5:05 pm CST Thursday 23 October 2014 (issued every 30 minutes, with the page automatically refreshed every 10 minutes)

About weather observations | Map of weather stations | Latest weather observations for NT | Other Formats
Station Details ID: 014703 Name: CENTRE ISLAND Lat: -15.74 Lon: 136.82 Height: 12.2 m
Data from the previous 72 hours. | See also: Recent months at Centre Island
Date/Time
CST
Temp
°C
App
Temp
°C
Dew
Point
Rel
Hum
%
Delta-T
°C
Wind Press
QNH
hPa
Press
MSL
hPa
Rain
since 9 am
mm
Dir
 
Spd
km/h
Gust
km/h
Spd
kts
Gust
kts
23/05:00pm 28.5 27.6 21.5 66 4.7 NE 28 33 15 18 1012.0 1011.9 0.0
23/04:30pm 29.2 28.9 21.9 64 4.9 NE 26 35 14 19 1012.0 1011.9 0.0
23/04:00pm 29.5 28.8 22.5 66 4.8 NE 30 37 16 20 1012.0 1011.9 0.0
23/03:30pm 30.1 29.6 22.8 65 5.0 NE 30 39 16 21 1012.1 1012.0 0.0
23/03:00pm 30.9 31.3 22.5 61 5.7 NE 24 32 13 17 1012.4 1012.3 0.0
23/02:30pm 30.5 30.7 21.3 58 6.2 NE 22 30 12 16 1012.8 1012.7 0.0
23/02:00pm 31.8 33.0 22.5 58 6.4 NNE 20 28 11 15 1013.1 1013.0 0.0
23/01:30pm 31.9 32.3 21.7 54 6.9 NNE 22 30 12 16 1013.3 1013.2 0.0
23/01:00pm 32.0 32.7 21.5 53 7.1 NNE 20 26 11 14 1013.6 1013.5 0.0
23/12:30pm 31.3 31.4 21.8 57 6.4 NE 24 30 13 16 1013.9 1013.8 0.0
23/12:00pm 31.7 31.5 21.2 53 7.1 NE 24 32 13 17 1014.4 1014.3 0.0
23/11:30am 31.6 32.3 22.3 57 6.3 NE 22 30 12 16 1015.0 1014.9 0.0
23/11:00am 31.3 31.0 21.8 57 6.4 NE 26 35 14 19 1015.3 1015.2 0.0
23/10:30am 31.0 30.9 21.5 57 6.4 ENE 24 32 13 17 1015.5 1015.4 0.0
23/10:00am 31.0 29.8 20.9 55 6.7 ENE 28 37 15 20 1015.7 1015.6 0.0
23/09:30am 30.4 30.0 23.1 65 5.0 E 30 39 16 21 1015.7 1015.6 0.0
23/09:00am 27.8 28.3 22.7 74 3.5 E 24 30 13 16 1015.9 1015.8 0.0
23/08:30am 26.8 29.4 22.6 78 2.8 S 13 17 7 9 1014.8 1014.7 0.0
23/08:00am 26.4 28.7 22.7 80 2.5 S 15 20 8 11 1014.8 1014.7 0.0
23/07:30am 25.8 27.8 22.9 84 2.0 S 17 22 9 12 1014.5 1014.4 0.0
23/07:00am 25.0 27.1 23.1 89 1.3 S 17 22 9 12 1014.0 1013.9 0.0
23/06:30am 24.7 27.2 23.1 91 1.1 S 15 19 8 10 1013.6 1013.5 0.0
23/06:00am 24.6 27.8 23.0 91 1.1 SSW 11 15 6 8 1013.3 1013.2 0.0
23/05:30am 24.6 27.8 23.0 91 1.1 S 11 15 6 8 1013.0 1012.9 0.0
23/05:00am 24.7 27.9 23.1 91 1.1 S 11 17 6 9 1012.7 1012.6 0.0
23/04:30am 24.9 28.1 23.1 90 1.2 S 11 17 6 9 1012.5 1012.4 0.0
23/04:00am 25.1 29.0 22.6 86 1.7 W 6 11 3 6 1012.4 1012.3 0.0
23/03:30am 25.0 28.5 22.1 84 1.9 WSW 7 13 4 7 1012.5 1012.4 0.0
23/03:00am 25.6 28.0 22.3 82 2.2 NE 13 17 7 9 1012.3 1012.2 0.0
23/02:30am 25.2 28.3 22.1 83 2.1 NE 9 11 5 6 1012.7 1012.6 0.0
23/02:00am 25.6 28.3 22.1 81 2.3 NNE 11 17 6 9 1012.9 1012.8 0.0
23/01:30am 26.0 27.6 22.9 83 2.1 NNE 19 24 10 13 1012.9 1012.8 0.0
23/01:00am 26.1 27.3 23.2 84 2.0 NNE 22 30 12 16 1013.3 1013.2 0.0
23/12:30am 26.0 27.5 23.1 84 2.0 NNE 20 30 11 16 1013.8 1013.7 0.0
23/12:00am 26.1 27.7 23.2 84 2.0 NNE 20 30 11 16 1014.1 1014.0 0.0
 
Date/Time
CST
Temp
°C
App
Temp
°C
Dew
Point
Rel
Hum
%
Delta-T
°C
Wind Press
QNH
hPa
Press
MSL
hPa
Rain
since 9 am
mm
Dir
 
Spd
km/h
Gust
km/h
Spd
kts
Gust
kts
22/11:30pm 25.9 27.8 22.8 83 2.1 NNE 17 24 9 13 1014.4 1014.3 0.0
22/11:00pm 26.1 27.6 23.0 83 2.1 NE 20 28 11 15 1014.8 1014.7 0.0
22/10:30pm 26.2 26.7 22.7 81 2.4 ENE 24 32 13 17 1015.1 1015.0 0.0
22/10:00pm 26.3 26.6 22.2 78 2.8 ENE 24 30 13 16 1015.0 1014.9 0.0
22/09:30pm 26.5 27.0 22.6 79 2.6 NE 24 30 13 16 1014.6 1014.5 0.0
22/09:00pm 26.5 26.6 22.6 79 2.6 NNE 26 32 14 17 1014.2 1014.1 0.0
22/08:30pm 26.3 27.4 22.4 79 2.6 NNE 20 26 11 14 1014.1 1014.0 0.0
22/08:00pm 26.5 28.0 23.0 81 2.4 NE 20 26 11 14 1014.2 1014.1 0.0
22/07:30pm 26.7 28.1 22.8 79 2.6 NE 20 24 11 13 1014.0 1013.9 0.0
22/07:00pm 26.8 28.2 22.6 78 2.8 NE 19 24 10 13 1013.8 1013.7 0.0
22/06:30pm 27.1 28.6 22.7 77 3.0 NE 19 26 10 14 1013.6 1013.5 0.0
22/06:00pm 27.7 28.7 22.9 75 3.3 NNE 22 28 12 15 1013.3 1013.2 0.0
22/05:30pm 28.4 29.8 22.9 72 3.7 NNE 20 26 11 14 1013.0 1012.9 0.0
22/05:00pm 28.9 29.7 22.4 68 4.4 NNE 22 28 12 15 1012.8 1012.7 0.0
22/04:30pm 29.4 29.9 22.6 67 4.6 NE 24 32 13 17 1012.8 1012.7 0.0
22/04:00pm 30.0 30.5 22.7 65 5.0 NNE 24 32 13 17 1012.7 1012.6 0.0
22/03:30pm 30.4 30.1 22.6 63 5.3 NE 28 33 15 18 1012.8 1012.7 0.0
22/03:00pm 31.1 32.3 23.2 63 5.4 NNE 22 32 12 17 1013.0 1012.9 0.0
22/02:30pm 31.4 32.5 22.4 59 6.1 NNE 20 30 11 16 1013.3 1013.2 0.0
22/02:00pm 31.4 31.6 22.1 57 6.3 NNE 24 32 13 17 1013.4 1013.3 0.0
22/01:30pm 31.2 31.6 21.7 57 6.4 NE 22 28 12 15 1014.0 1013.9 0.0
22/01:00pm 31.7 32.1 21.8 55 6.7 NE 22 30 12 16 1014.5 1014.4 0.0
22/12:30pm 31.5 31.5 21.7 56 6.6 NNE 24 32 13 17 1014.9 1014.8 0.0
22/12:00pm 31.3 30.9 20.9 54 6.9 NE 24 32 13 17 1015.3 1015.2 0.0
22/11:30am 31.1 30.5 21.3 56 6.6 NE 26 35 14 19 1015.5 1015.4 0.0
22/11:00am 31.9 30.5 21.1 52 7.2 ENE 30 39 16 21 1015.8 1015.7 0.0
22/10:30am 31.5 30.7 21.7 56 6.6 ENE 28 37 15 20 1016.0 1015.9 0.0
22/10:00am 30.1 31.8 21.7 60 5.7 E 15 26 8 14 1016.0 1015.9 0.0
22/09:30am 28.8 31.7 21.8 66 4.7 SE 9 13 5 7 1016.0 1015.9 0.0
22/09:00am 28.2 30.8 22.0 69 4.2 SW 11 13 6 7 1015.3 1015.2 0.0
22/08:30am 27.3 29.5 21.8 72 3.7 WSW 13 17 7 9 1015.2 1015.1 0.0
22/08:00am 27.1 29.1 22.3 75 3.2 S 15 19 8 10 1015.2 1015.1 0.0
22/07:30am 26.2 28.9 22.1 78 2.7 SSW 11 15 6 8 1014.9 1014.8 0.0
22/07:00am 25.5 27.9 22.2 82 2.2 SSW 13 17 7 9 1014.7 1014.6 0.0
22/06:30am 25.0 26.8 22.5 86 1.7 SSW 17 22 9 12 1014.4 1014.3 0.0
22/06:00am 24.4 26.4 22.3 88 1.4 SSW 15 20 8 11 1014.1 1014.0 0.0
22/05:30am 24.4 26.2 22.5 89 1.3 SSW 17 20 9 11 1013.9 1013.8 0.0
22/05:00am 24.6 26.4 22.5 88 1.4 S 17 20 9 11 1013.6 1013.5 0.0
22/04:30am 24.7 27.6 22.4 87 1.5 SSW 11 17 6 9 1013.2 1013.1 0.0
22/04:00am 24.6 27.9 22.5 88 1.4 WNW 9 11 5 6 1013.1 1013.0 0.0
22/03:30am 24.7 28.0 22.6 88 1.4 WNW 9 13 5 7 1012.9 1012.8 0.0
22/03:00am 24.5 27.2 21.4 83 2.0 WNW 9 13 5 7 1012.9 1012.8 0.0
22/02:30am 24.9 28.0 22.2 85 1.8 SW 9 13 5 7 1013.1 1013.0 0.0
22/02:00am 24.4 27.3 21.7 85 1.8 WNW 9 13 5 7 1013.2 1013.1 0.0
22/01:30am 24.6 27.8 21.7 84 1.9 NNW 7 11 4 6 1013.2 1013.1 0.0
22/01:00am 25.0 27.4 22.3 85 1.8 N 13 17 7 9 1013.5 1013.4 0.0
22/12:30am 25.2 27.9 22.1 83 2.1 N 11 15 6 8 1013.9 1013.8 0.0
22/12:00am 25.5 27.8 22.0 81 2.3 NNE 13 17 7 9 1014.5 1014.4 0.0
 
Date/Time
CST
Temp
°C
App
Temp
°C
Dew
Point
Rel
Hum
%
Delta-T
°C
Wind Press
QNH
hPa
Press
MSL
hPa
Rain
since 9 am
mm
Dir
 
Spd
km/h
Gust
km/h
Spd
kts
Gust
kts
21/11:30pm 25.8 28.3 22.5 82 2.2 NE 13 17 7 9 1014.9 1014.8 0.0
21/11:00pm 26.1 27.2 22.4 80 2.5 ENE 20 26 11 14 1015.5 1015.4 0.0
21/10:30pm 26.3 27.6 22.6 80 2.5 ENE 20 26 11 14 1015.8 1015.7 0.0
21/10:00pm 26.3 27.1 21.7 76 3.1 ENE 20 22 11 12 1015.7 1015.6 0.0
21/09:30pm 26.7 27.7 22.1 76 3.1 ENE 20 26 11 14 1015.5 1015.4 0.0
21/09:00pm 26.6 27.5 21.6 74 3.3 ENE 19 24 10 13 1015.2 1015.1 0.0
21/08:30pm 26.7 27.5 21.7 74 3.3 ENE 20 24 11 13 1015.0 1014.9 0.0
21/08:00pm 26.8 27.8 22.2 76 3.1 NE 20 24 11 13 1014.7 1014.6 0.0
21/07:30pm 26.9 28.0 22.3 76 3.1 NE 20 26 11 14 1014.5 1014.4 0.0
21/07:00pm 27.0 27.8 22.4 76 3.1 NE 22 30 12 16 1014.5 1014.4 0.0
21/06:30pm 27.2 27.7 22.6 76 3.1 NE 24 28 13 15 1014.3 1014.2 0.0
21/06:00pm 27.7 28.5 22.4 73 3.6 NE 22 28 12 15 1014.0 1013.9 0.0
21/05:30pm 28.4 28.4 22.4 70 4.1 NE 26 33 14 18 1013.5 1013.4 0.0
21/05:00pm 28.9 28.4 22.2 67 4.5 NE 28 35 15 19 1013.3 1013.2 0.0
21/04:30pm 29.4 28.9 22.1 65 4.9 NNE 28 39 15 21 1013.1 1013.0 0.0
21/04:00pm 30.3 30.0 21.9 60 5.7 NNE 26 35 14 19 1013.0 1012.9 0.0
21/03:30pm 30.8 30.8 22.4 61 5.7 NNE 26 32 14 17 1013.2 1013.1 0.0
21/03:00pm 31.5 31.5 21.7 56 6.6 NE 24 30 13 16 1013.3 1013.2 0.0
21/02:30pm 32.1 32.1 21.6 53 7.1 NNE 24 33 13 18 1013.6 1013.5 0.0
21/02:00pm 31.8 32.0 21.3 53 7.1 NNE 22 30 12 16 1014.0 1013.9 0.0
21/01:30pm 32.2 33.2 21.1 52 7.5 NE 17 26 9 14 1014.2 1014.1 0.0
21/01:00pm 32.1 34.4 20.7 51 7.6 NE 9 15 5 8 1014.7 1014.6 0.0
21/12:30pm 31.8 33.1 23.3 60 5.9 ESE 22 26 12 14 1015.2 1015.1 0.0
21/12:00pm 31.5 31.9 23.1 61 5.8 ESE 26 30 14 16 1015.7 1015.6 0.0
21/11:30am 31.9 33.5 20.8 51 7.4 E 13 19 7 10 1016.0 1015.9 0.0
21/11:00am 30.6 31.9 21.7 59 6.0 ESE 17 20 9 11 1016.3 1016.2 0.0
21/10:30am 30.0 31.0 20.3 56 6.4 SE 15 19 8 10 1016.5 1016.4 0.0
21/10:00am 29.3 30.4 19.6 56 6.3 ESE 13 17 7 9 1016.9 1016.8 0.0
21/09:30am 29.1 30.2 20.5 59 5.7 ESE 15 17 8 9 1016.9 1016.8 0.0
21/09:00am 28.4 29.5 20.4 62 5.3 SE 15 17 8 9 1016.9 1016.8 0.0
21/08:30am 27.4 28.1 21.2 69 4.1 SW 19 24 10 13 1016.4 1016.3 0.0
21/08:00am 26.6 27.2 21.1 72 3.6 SW 19 26 10 14 1015.7 1015.6 0.0
21/07:30am 26.0 26.8 21.4 76 3.0 SSW 19 22 10 12 1015.5 1015.4 0.0
21/07:00am 25.1 25.6 20.8 77 2.8 SW 19 24 10 13 1015.1 1015.0 0.0
21/06:30am 24.6 25.1 21.1 81 2.3 SW 20 26 11 14 1014.7 1014.6 0.0
21/06:00am 24.2 25.2 21.1 83 2.0 SW 17 20 9 11 1014.5 1014.4 0.0
21/05:30am 24.2 25.2 21.1 83 2.0 SW 17 20 9 11 1014.3 1014.2 0.0
21/05:00am 24.2 25.5 20.9 82 2.2 SW 15 17 8 9 1013.9 1013.8 0.0
21/04:30am 24.3 26.1 21.2 83 2.0 WSW 13 19 7 10 1013.6 1013.5 0.0
21/04:00am 24.5 26.1 21.4 83 2.0 WSW 15 19 8 10 1013.5 1013.4 0.0
21/03:30am 24.3 26.5 21.8 86 1.7 SW 13 17 7 9 1013.3 1013.2 0.0
21/03:00am 24.2 27.4 22.3 89 1.3 W 9 11 5 6 1013.3 1013.2 0.0
21/02:30am 23.6 26.3 20.7 84 1.9 WNW 7 9 4 5 1013.2 1013.1 0.0
21/02:00am 23.9 27.0 21.0 84 1.9 NW 6 9 3 5 1013.5 1013.4 0.0
21/01:30am 24.6 28.1 21.9 85 1.8 W 6 9 3 5 1013.5 1013.4 0.0
21/01:00am 24.3 27.6 21.4 84 1.9 WNW 6 7 3 4 1013.8 1013.7 0.0
21/12:30am 24.5 28.2 20.8 80 2.4 NNW 2 7 1 4 1014.1 1014.0 0.0
21/12:00am 24.9 27.6 20.2 75 3.1 NE 6 9 3 5 1014.5 1014.4 0.0
 
Date/Time
CST
Temp
°C
App
Temp
°C
Dew
Point
Rel
Hum
%
Delta-T
°C
Wind Press
QNH
hPa
Press
MSL
hPa
Rain
since 9 am
mm
Dir
 
Spd
km/h
Gust
km/h
Spd
kts
Gust
kts
20/11:30pm 25.4 27.9 21.1 77 2.8 NE 9 11 5 6 1014.7 1014.6 0.0
20/11:00pm 25.7 27.7 20.7 74 3.3 NNE 11 13 6 7 1015.0 1014.9 0.0
20/10:30pm 25.9 27.6 20.9 74 3.3 NE 13 19 7 10 1015.2 1015.1 0.0
20/10:00pm 26.1 27.1 21.1 74 3.3 NE 17 20 9 11 1015.1 1015.0 0.0
20/09:30pm 26.1 26.6 20.9 73 3.4 NE 19 22 10 12 1014.9 1014.8 0.0
20/09:00pm 26.1 26.5 20.7 72 3.5 ENE 19 24 10 13 1014.7 1014.6 0.0
20/08:30pm 26.1 26.6 20.9 73 3.4 ENE 19 24 10 13 1014.5 1014.4 0.0
20/08:00pm 26.2 26.0 20.5 71 3.7 ENE 22 26 12 14 1014.3 1014.2 0.0
20/07:30pm 26.4 26.3 21.4 74 3.3 NE 24 30 13 16 1014.1 1014.0 0.0
20/07:00pm 26.6 27.0 21.8 75 3.2 NE 22 30 12 16 1013.7 1013.6 0.0
20/06:30pm 26.8 26.2 21.3 72 3.7 NE 26 32 14 17 1013.4 1013.3 0.0
20/06:00pm 27.3 27.6 21.6 71 3.8 NE 22 28 12 15 1013.4 1013.3 0.0
20/05:30pm 27.9 27.9 21.0 66 4.6 NNE 22 30 12 16 1013.1 1013.0 0.0

Other Formats:

Comma delimited format used in spreadsheet applications
http://www.bom.gov.au/fwo/IDD60801/IDD60801.94248.axf

JavaScript Object Notation format (JSON) in row-major order
http://www.bom.gov.au/fwo/IDD60801/IDD60801.94248.json